createdAt,value
2022-11-09T00:01:42.536Z,78.34
2022-11-09T00:04:09.699Z,77.84
2022-11-09T00:06:37.064Z,77.77
2022-11-09T00:09:07.747Z,77.84
2022-11-09T00:11:36.566Z,77.47
2022-11-09T00:14:03.543Z,77.41
2022-11-09T00:16:30.179Z,77.82
2022-11-09T00:18:56.872Z,78.33
2022-11-09T00:21:25.079Z,78.74
2022-11-09T00:23:52.920Z,78.16
2022-11-09T00:26:21.016Z,77.90
2022-11-09T00:28:48.526Z,77.64
2022-11-09T00:31:18.654Z,78.34
2022-11-09T00:33:50.344Z,78.27
2022-11-09T00:36:18.424Z,78.50
2022-11-09T00:38:52.492Z,78.26
2022-11-09T00:41:20.146Z,79.06
2022-11-09T00:43:47.554Z,79.29
2022-11-09T00:46:14.279Z,79.35
2022-11-09T00:48:43.553Z,79.71
2022-11-09T00:51:10.937Z,79.87
2022-11-09T00:53:37.693Z,80.20
2022-11-09T00:56:12.721Z,80.05
2022-11-09T00:58:40.978Z,79.75
2022-11-09T01:01:11.838Z,80.10
2022-11-09T01:03:41.179Z,80.16
2022-11-09T01:06:08.858Z,79.96
2022-11-09T01:08:36.226Z,79.97
2022-11-09T01:11:08.561Z,79.84
2022-11-09T01:13:36.898Z,80.10
2022-11-09T01:16:11.420Z,80.38
2022-11-09T01:18:38.442Z,80.17
2022-11-09T01:21:07.962Z,80.23
2022-11-09T01:23:34.976Z,80.30
2022-11-09T01:26:04.867Z,80.05
2022-11-09T01:28:32.052Z,80.13
2022-11-09T01:31:06.925Z,80.19
2022-11-09T01:33:34.332Z,80.19
2022-11-09T01:36:08.575Z,80.79
2022-11-09T01:38:37.042Z,80.52
2022-11-09T01:41:05.560Z,80.56
2022-11-09T01:43:34.643Z,80.75
2022-11-09T01:46:12.402Z,80.56
2022-11-09T01:48:46.288Z,80.75
2022-11-09T01:51:22.078Z,80.51
2022-11-09T01:53:52.874Z,80.19
2022-11-09T01:56:20.151Z,80.23
2022-11-09T01:59:10.230Z,80.24
2022-11-09T02:01:37.134Z,80.15
2022-11-09T02:04:07.004Z,80.40
2022-11-09T02:06:34.097Z,79.85
2022-11-09T02:09:10.477Z,79.68
2022-11-09T02:11:37.860Z,80.00
2022-11-09T02:14:05.891Z,79.80
2022-11-09T02:16:33.554Z,80.02
2022-11-09T02:19:01.412Z,79.87
2022-11-09T02:21:30.903Z,79.84
2022-11-09T02:23:58.666Z,79.90
2022-11-09T02:26:41.006Z,80.20
2022-11-09T02:29:10.732Z,80.23
2022-11-09T02:31:42.162Z,80.16
2022-11-09T02:34:13.286Z,80.63
2022-11-09T02:36:40.025Z,80.64
2022-11-09T02:39:14.707Z,80.48
2022-11-09T02:41:46.035Z,80.42
2022-11-09T02:44:14.788Z,80.82
2022-11-09T02:46:41.739Z,80.87
2022-11-09T02:49:08.455Z,80.60
2022-11-09T02:51:36.389Z,81.34
2022-11-09T02:54:03.653Z,82.21
2022-11-09T02:56:30.576Z,82.18
2022-11-09T02:58:57.435Z,82.31
2022-11-09T03:01:24.202Z,82.53
2022-11-09T03:03:51.029Z,82.09
2022-11-09T03:06:18.273Z,82.44
2022-11-09T03:08:45.773Z,82.20
2022-11-09T03:11:14.198Z,82.37
2022-11-09T03:13:40.892Z,82.04
2022-11-09T03:16:09.280Z,81.96
2022-11-09T03:18:38.753Z,81.65
2022-11-09T03:21:06.342Z,81.62
2022-11-09T03:23:33.741Z,81.30
2022-11-09T03:26:01.485Z,81.50
2022-11-09T03:28:29.031Z,81.41
2022-11-09T03:30:56.602Z,81.43
2022-11-09T03:33:23.784Z,81.35
2022-11-09T03:35:51.239Z,81.06
2022-11-09T03:38:18.841Z,81.68
2022-11-09T03:40:46.558Z,81.21
2022-11-09T03:43:13.248Z,80.80
2022-11-09T03:45:40.619Z,80.98
2022-11-09T03:48:07.500Z,80.68
2022-11-09T03:50:35.336Z,80.82
2022-11-09T03:53:02.264Z,80.70
2022-11-09T03:55:29.104Z,80.88
2022-11-09T03:57:55.730Z,80.86
2022-11-09T04:00:23.329Z,81.18
2022-11-09T04:02:50.504Z,80.95
2022-11-09T04:05:17.688Z,80.78
2022-11-09T04:07:49.387Z,81.02
2022-11-09T04:10:16.317Z,80.92
2022-11-09T04:12:43.100Z,81.09
2022-11-09T04:15:10.319Z,80.90
2022-11-09T04:17:37.192Z,81.06
2022-11-09T04:20:05.075Z,80.55
2022-11-09T04:22:31.657Z,80.47
2022-11-09T04:24:58.274Z,80.52
2022-11-09T04:27:25.010Z,80.83
2022-11-09T04:29:51.637Z,80.69
2022-11-09T04:32:18.390Z,80.47
2022-11-09T04:34:45.044Z,80.32
2022-11-09T04:37:11.654Z,80.65
2022-11-09T04:39:38.560Z,80.66
2022-11-09T04:42:05.244Z,80.46
2022-11-09T04:44:31.958Z,80.57
2022-11-09T04:46:58.586Z,80.33
2022-11-09T04:49:25.187Z,80.07
2022-11-09T04:51:51.881Z,79.92
2022-11-09T04:54:18.595Z,80.39
2022-11-09T04:56:45.263Z,79.83
2022-11-09T04:59:12.080Z,80.08
2022-11-09T05:01:38.729Z,79.59
2022-11-09T05:04:05.494Z,80.12
2022-11-09T05:06:32.300Z,79.89
2022-11-09T05:09:04.441Z,79.82
2022-11-09T05:11:31.786Z,79.75
2022-11-09T05:13:58.943Z,79.98
2022-11-09T05:16:25.907Z,79.81
2022-11-09T05:18:52.799Z,79.70
2022-11-09T05:21:19.794Z,79.37
2022-11-09T05:23:59.297Z,79.44
2022-11-09T05:26:28.038Z,79.69
2022-11-09T05:28:55.040Z,79.39
2022-11-09T05:31:21.920Z,79.25
2022-11-09T05:33:50.594Z,79.03
2022-11-09T05:36:18.557Z,79.13
2022-11-09T05:38:46.275Z,78.96
2022-11-09T05:41:13.294Z,78.97
2022-11-09T05:43:40.063Z,78.87
2022-11-09T05:46:07.497Z,78.85
2022-11-09T05:48:34.720Z,78.81
2022-11-09T05:51:04.924Z,78.53
2022-11-09T05:53:32.403Z,78.54
2022-11-09T05:56:08.265Z,78.69
2022-11-09T05:58:38.889Z,78.53
2022-11-09T06:01:07.382Z,78.83
2022-11-09T06:03:34.096Z,79.08
2022-11-09T06:06:08.011Z,79.14
2022-11-09T06:08:35.949Z,79.37
2022-11-09T06:11:06.041Z,79.37
2022-11-09T06:13:33.261Z,79.06
2022-11-09T06:16:01.659Z,78.98
2022-11-09T06:18:30.923Z,78.56
2022-11-09T06:21:02.960Z,78.30
2022-11-09T06:23:30.314Z,78.32
2022-11-09T06:26:09.435Z,78.33
2022-11-09T06:28:37.714Z,78.15
2022-11-09T06:31:06.539Z,78.13
2022-11-09T06:33:35.562Z,77.97
2022-11-09T06:36:02.761Z,78.06
2022-11-09T06:38:29.731Z,77.88
2022-11-09T06:40:58.837Z,78.28
2022-11-09T06:43:26.594Z,78.13
2022-11-09T06:45:53.942Z,78.17
2022-11-09T06:48:21.049Z,77.91
2022-11-09T06:50:47.734Z,77.83
2022-11-09T06:53:16.455Z,78.01
2022-11-09T06:55:47.369Z,77.78
2022-11-09T06:58:17.687Z,77.76
2022-11-09T07:00:45.628Z,77.51
2022-11-09T07:03:15.375Z,77.43
2022-11-09T07:05:42.087Z,77.54
2022-11-09T07:08:08.800Z,77.17
2022-11-09T07:10:35.539Z,77.38
2022-11-09T07:13:03.325Z,77.32
2022-11-09T07:15:30.055Z,77.56
2022-11-09T07:17:58.249Z,78.47
2022-11-09T07:20:25.607Z,78.06
2022-11-09T07:22:52.646Z,77.88
2022-11-09T07:25:19.856Z,77.54
2022-11-09T07:27:46.810Z,77.90
2022-11-09T07:30:14.254Z,77.60
2022-11-09T07:33:07.558Z,77.26
2022-11-09T07:35:28.791Z,76.93
2022-11-09T07:37:59.900Z,77.09
2022-11-09T07:40:27.461Z,77.17
2022-11-09T07:42:58.109Z,76.71
2022-11-09T07:45:25.879Z,76.99
2022-11-09T07:48:04.676Z,76.50
2022-11-09T07:50:32.520Z,76.18
2022-11-09T07:53:00.802Z,75.95
2022-11-09T07:55:28.838Z,75.92
2022-11-09T07:58:00.824Z,75.84
2022-11-09T08:00:30.038Z,75.59
2022-11-09T08:02:57.188Z,75.88
2022-11-09T08:05:24.235Z,75.91
2022-11-09T08:07:56.077Z,75.57
2022-11-09T08:10:23.655Z,75.12
2022-11-09T08:12:58.588Z,75.98
2022-11-09T08:15:26.344Z,75.31
2022-11-09T08:17:53.065Z,74.97
2022-11-09T08:20:20.895Z,74.68
2022-11-09T08:22:47.817Z,74.34
2022-11-09T08:25:15.237Z,74.63
2022-11-09T08:27:42.071Z,74.64
2022-11-09T08:30:15.370Z,74.29
2022-11-09T08:32:43.424Z,74.44
2022-11-09T08:35:13.441Z,74.30
2022-11-09T08:37:40.048Z,74.10
2022-11-09T08:40:07.391Z,74.24
2022-11-09T08:42:34.062Z,74.14
2022-11-09T08:45:00.917Z,73.40
2022-11-09T08:47:29.422Z,72.72
2022-11-09T08:49:56.070Z,72.64
2022-11-09T08:52:22.917Z,72.52
2022-11-09T08:54:49.866Z,72.42
2022-11-09T08:57:18.817Z,71.47
2022-11-09T08:59:46.443Z,71.33
2022-11-09T09:02:13.999Z,70.82
2022-11-09T09:04:40.977Z,70.59
2022-11-09T09:07:08.455Z,69.90
2022-11-09T09:09:37.699Z,69.07
2022-11-09T09:12:06.402Z,67.74
2022-11-09T09:14:33.428Z,66.41
2022-11-09T09:17:00.681Z,64.55
2022-11-09T09:19:27.637Z,60.97
2022-11-09T09:21:54.492Z,56.42
2022-11-09T09:24:21.361Z,52.66
2022-11-09T09:26:48.253Z,49.54
2022-11-09T09:29:16.421Z,48.73
2022-11-09T09:31:43.041Z,48.51
2022-11-09T09:34:11.758Z,48.31
2022-11-09T09:36:42.128Z,48.85
2022-11-09T09:39:11.521Z,50.47
2022-11-09T09:41:45.200Z,52.77
2022-11-09T09:44:38.500Z,55.07
2022-11-09T09:47:22.372Z,57.19
2022-11-09T09:50:01.314Z,57.55
2022-11-09T09:52:38.850Z,58.42
2022-11-09T09:55:17.448Z,59.69
2022-11-09T09:57:50.323Z,59.47
2022-11-09T10:00:27.041Z,59.92
2022-11-09T10:02:54.399Z,59.87
2022-11-09T10:05:29.633Z,60.73
2022-11-09T10:08:34.223Z,59.17
2022-11-09T10:11:19.702Z,55.20
2022-11-09T10:13:51.966Z,50.68
2022-11-09T10:16:51.646Z,46.79
2022-11-09T10:19:30.449Z,45.31
2022-11-09T10:22:12.059Z,44.84
2022-11-09T10:25:20.770Z,43.95
2022-11-09T10:28:12.819Z,42.40
2022-11-09T10:30:40.425Z,41.52
2022-11-09T10:33:18.362Z,43.36
2022-11-09T10:35:56.733Z,45.69
2022-11-09T10:38:37.123Z,47.79
2022-11-09T10:41:42.434Z,48.96
2022-11-09T10:44:27.671Z,50.24
2022-11-09T10:47:16.709Z,50.07
2022-11-09T10:50:24.547Z,50.28
2022-11-09T10:53:22.030Z,51.88
2022-11-09T10:56:19.958Z,53.97
2022-11-09T10:59:35.355Z,53.22
2022-11-09T11:02:26.684Z,54.43
2022-11-09T11:05:31.316Z,53.88
2022-11-09T11:08:44.212Z,53.67
2022-11-09T11:11:34.427Z,52.50
2022-11-09T11:14:35.429Z,51.73
2022-11-09T11:17:26.450Z,50.37
2022-11-09T11:20:33.548Z,50.57
2022-11-09T11:23:24.842Z,52.09
2022-11-09T11:26:23.474Z,53.48
2022-11-09T11:29:34.595Z,54.72
2022-11-09T11:32:20.861Z,55.94
2022-11-09T11:35:14.511Z,57.26
2022-11-09T11:38:22.274Z,58.12
2022-11-09T11:41:39.325Z,59.59
2022-11-09T11:45:07.133Z,61.82
2022-11-09T11:48:36.327Z,62.21
2022-11-09T11:51:34.701Z,63.45
2022-11-09T11:54:38.663Z,63.45
2022-11-09T11:57:35.991Z,63.37
2022-11-09T12:00:21.751Z,63.50
2022-11-09T12:03:14.842Z,62.84
2022-11-09T12:06:15.481Z,63.03
2022-11-09T12:09:15.631Z,63.94
2022-11-09T12:12:13.134Z,64.01
2022-11-09T12:15:07.423Z,64.28
2022-11-09T12:18:09.315Z,64.64
2022-11-09T12:21:03.890Z,65.19
2022-11-09T12:23:58.201Z,65.42
2022-11-09T12:27:30.571Z,65.41
2022-11-09T12:30:15.037Z,65.53
2022-11-09T12:33:05.788Z,65.92
2022-11-09T12:35:55.316Z,66.00
2022-11-09T12:39:10.423Z,66.31
2022-11-09T12:42:01.456Z,66.24
2022-11-09T12:44:52.743Z,66.34
2022-11-09T12:47:42.685Z,66.23
2022-11-09T12:50:29.101Z,66.56
2022-11-09T12:53:15.536Z,66.86
2022-11-09T12:56:27.499Z,66.63
2022-11-09T12:59:20.192Z,66.98
2022-11-09T13:02:05.997Z,66.74
2022-11-09T13:05:00.804Z,66.99
2022-11-09T13:07:51.650Z,67.66
2022-11-09T13:10:38.763Z,67.67
2022-11-09T13:13:25.242Z,67.35
2022-11-09T13:16:12.531Z,67.56
2022-11-09T13:18:57.951Z,67.17
2022-11-09T13:21:43.060Z,67.89
2022-11-09T13:24:30.837Z,66.98
2022-11-09T13:27:49.870Z,66.92
2022-11-09T13:30:40.645Z,67.24
2022-11-09T13:33:27.744Z,67.26
2022-11-09T13:36:16.068Z,67.30
2022-11-09T13:39:32.676Z,67.29
2022-11-09T13:42:36.724Z,67.13
2022-11-09T13:45:29.955Z,67.09
2022-11-09T13:48:24.573Z,67.47
2022-11-09T13:51:13.980Z,67.04
2022-11-09T13:54:28.256Z,67.02
2022-11-09T13:57:13.806Z,66.78
2022-11-09T14:00:00.153Z,66.57
2022-11-09T14:03:15.143Z,66.12
2022-11-09T14:06:02.783Z,66.06
2022-11-09T14:08:48.822Z,66.54
2022-11-09T14:11:36.847Z,66.35
2022-11-09T14:14:49.324Z,65.82
2022-11-09T14:18:02.056Z,66.20
2022-11-09T14:20:53.379Z,66.21
2022-11-09T14:23:39.092Z,66.73
2022-11-09T14:26:26.080Z,66.58
2022-11-09T14:29:21.015Z,66.87
2022-11-09T14:32:18.562Z,67.14
2022-11-09T14:35:25.118Z,67.12
2022-11-09T14:38:22.147Z,67.47
2022-11-09T14:41:22.373Z,67.61
2022-11-09T14:44:16.270Z,67.16
2022-11-09T14:47:03.339Z,67.72
2022-11-09T14:49:49.774Z,67.75
2022-11-09T14:52:35.711Z,67.51
2022-11-09T14:55:23.288Z,67.52
2022-11-09T14:58:14.056Z,68.29
2022-11-09T15:01:17.509Z,67.95
2022-11-09T15:04:08.942Z,67.99
2022-11-09T15:07:00.693Z,67.59
2022-11-09T15:09:48.755Z,67.81
2022-11-09T15:12:35.445Z,67.46
2022-11-09T15:15:24.511Z,67.82
2022-11-09T15:18:19.694Z,67.49
2022-11-09T15:21:14.516Z,67.72
2022-11-09T15:24:29.479Z,67.79
2022-11-09T15:27:35.243Z,67.64
2022-11-09T15:30:37.720Z,67.62
2022-11-09T15:33:35.193Z,68.29
2022-11-09T15:36:26.842Z,68.18
2022-11-09T15:39:18.076Z,67.96
2022-11-09T15:42:03.430Z,68.10
2022-11-09T15:44:54.068Z,68.27
2022-11-09T15:47:39.717Z,68.38
2022-11-09T15:50:27.548Z,68.22
2022-11-09T15:53:13.458Z,68.23
2022-11-09T15:56:00.285Z,68.38
2022-11-09T15:58:48.637Z,68.35
2022-11-09T16:01:34.459Z,68.63
2022-11-09T16:04:19.752Z,69.05
2022-11-09T16:07:06.270Z,68.69
2022-11-09T16:09:51.473Z,69.13
2022-11-09T16:12:39.488Z,69.76
2022-11-09T16:15:27.796Z,69.80
2022-11-09T16:18:13.516Z,69.50
2022-11-09T16:21:07.659Z,69.81
2022-11-09T16:23:58.112Z,70.13
2022-11-09T16:26:45.398Z,70.00
2022-11-09T16:29:32.326Z,70.02
2022-11-09T16:32:17.692Z,70.72
2022-11-09T16:35:29.222Z,70.52
2022-11-09T16:38:10.046Z,70.39
2022-11-09T16:40:55.608Z,70.58
2022-11-09T16:43:41.596Z,70.59
2022-11-09T16:46:28.542Z,70.61
2022-11-09T16:49:13.880Z,70.99
2022-11-09T16:51:59.225Z,71.21
2022-11-09T16:54:44.533Z,71.18
2022-11-09T16:57:29.820Z,71.47
2022-11-09T17:00:15.780Z,71.60
2022-11-09T17:03:02.972Z,71.35
2022-11-09T17:05:48.511Z,71.73
2022-11-09T17:08:33.907Z,71.67
2022-11-09T17:11:20.425Z,72.13
2022-11-09T17:14:06.462Z,72.59
2022-11-09T17:16:51.564Z,72.05
2022-11-09T17:19:37.094Z,72.30
2022-11-09T17:22:22.331Z,71.83
2022-11-09T17:25:08.337Z,72.24
2022-11-09T17:27:53.703Z,72.10
2022-11-09T17:30:40.556Z,72.10
2022-11-09T17:33:25.823Z,72.29
2022-11-09T17:36:13.205Z,72.38
2022-11-09T17:38:58.141Z,72.47
2022-11-09T17:41:43.451Z,72.48
2022-11-09T17:44:28.557Z,71.76
2022-11-09T17:47:13.999Z,71.74
2022-11-09T17:49:59.187Z,71.64
2022-11-09T17:52:44.492Z,71.75
2022-11-09T17:55:30.073Z,71.53
2022-11-09T17:58:15.899Z,71.48
2022-11-09T18:01:10.054Z,71.51
2022-11-09T18:03:55.252Z,71.47
2022-11-09T18:06:40.657Z,72.26
2022-11-09T18:09:42.536Z,72.20
2022-11-09T18:12:28.305Z,72.62
2022-11-09T18:15:13.569Z,72.87
2022-11-09T18:17:59.009Z,72.76
2022-11-09T18:20:44.693Z,72.65
2022-11-09T18:23:30.061Z,72.86
2022-11-09T18:26:15.480Z,72.56
2022-11-09T18:29:00.444Z,72.72
2022-11-09T18:31:46.058Z,72.72
2022-11-09T18:34:31.626Z,72.85
2022-11-09T18:37:16.769Z,72.38
2022-11-09T18:40:01.903Z,72.51
2022-11-09T18:42:47.163Z,72.23
2022-11-09T18:45:34.526Z,72.42
2022-11-09T18:48:20.245Z,72.78
2022-11-09T18:51:06.924Z,73.23
2022-11-09T18:53:52.246Z,73.56
2022-11-09T18:56:37.364Z,73.56
2022-11-09T18:59:22.697Z,73.21
2022-11-09T19:02:11.514Z,73.91
2022-11-09T19:04:56.763Z,73.43
2022-11-09T19:07:41.913Z,73.26
2022-11-09T19:10:27.468Z,73.26
2022-11-09T19:13:12.727Z,73.14
2022-11-09T19:15:58.596Z,73.69
2022-11-09T19:18:43.949Z,73.85
2022-11-09T19:21:48.716Z,73.80
2022-11-09T19:24:34.116Z,74.00
2022-11-09T19:27:19.476Z,74.18
2022-11-09T19:30:09.477Z,73.62
2022-11-09T19:32:55.453Z,74.12
2022-11-09T19:35:40.571Z,74.21
2022-11-09T19:38:25.891Z,74.10
2022-11-09T19:41:11.432Z,74.08
2022-11-09T19:43:58.590Z,74.13
2022-11-09T19:46:44.391Z,74.44
2022-11-09T19:49:29.551Z,74.60
2022-11-09T19:52:14.660Z,74.91
2022-11-09T19:55:00.287Z,74.97
2022-11-09T19:57:45.197Z,75.09
2022-11-09T20:00:30.562Z,75.41
2022-11-09T20:03:15.967Z,75.60
2022-11-09T20:06:02.211Z,75.95
2022-11-09T20:08:47.743Z,76.20
2022-11-09T20:11:51.792Z,76.78
2022-11-09T20:14:37.098Z,77.26
2022-11-09T20:17:22.346Z,77.55
2022-11-09T20:20:08.995Z,77.69
2022-11-09T20:22:54.530Z,77.46
2022-11-09T20:25:39.731Z,77.18
2022-11-09T20:28:24.934Z,76.99
2022-11-09T20:31:15.807Z,76.98
2022-11-09T20:34:02.317Z,76.94
2022-11-09T20:36:47.638Z,76.79
2022-11-09T20:39:32.904Z,76.94
2022-11-09T20:42:17.933Z,76.64
2022-11-09T20:45:03.846Z,77.10
2022-11-09T20:48:10.156Z,76.64
2022-11-09T20:50:54.706Z,76.29
2022-11-09T20:53:40.052Z,76.13
2022-11-09T20:56:25.227Z,76.57
2022-11-09T20:59:10.231Z,76.65
2022-11-09T21:01:56.001Z,76.92
2022-11-09T21:04:41.885Z,76.71
2022-11-09T21:07:27.005Z,76.84
2022-11-09T21:10:12.238Z,76.73
2022-11-09T21:12:57.675Z,77.26
2022-11-09T21:15:43.191Z,76.91
2022-11-09T21:18:28.494Z,77.19
2022-11-09T21:21:17.000Z,76.76
2022-11-09T21:24:20.600Z,77.27
2022-11-09T21:27:24.470Z,77.21
2022-11-09T21:30:10.482Z,76.91
2022-11-09T21:32:55.567Z,76.66
2022-11-09T21:35:41.294Z,76.48
2022-11-09T21:38:26.382Z,76.96
2022-11-09T21:41:30.186Z,76.68
2022-11-09T21:44:16.093Z,76.49
2022-11-09T21:47:02.049Z,76.39
2022-11-09T21:49:47.178Z,76.02
2022-11-09T21:52:32.480Z,76.07
2022-11-09T21:55:17.804Z,76.08
2022-11-09T21:58:03.186Z,75.63
2022-11-09T22:00:48.539Z,76.05
2022-11-09T22:03:34.814Z,76.22
2022-11-09T22:06:20.746Z,76.35
2022-11-09T22:09:08.002Z,76.32
2022-11-09T22:12:11.826Z,76.62
2022-11-09T22:15:15.581Z,76.45
2022-11-09T22:18:00.932Z,75.88
2022-11-09T22:20:55.304Z,75.72
2022-11-09T22:23:40.801Z,75.70
2022-11-09T22:26:30.142Z,75.91
2022-11-09T22:29:15.675Z,75.90
2022-11-09T22:32:01.421Z,75.85
2022-11-09T22:34:46.507Z,76.03
2022-11-09T22:37:31.782Z,75.23
2022-11-09T22:40:18.280Z,75.23
2022-11-09T22:43:03.561Z,75.49
2022-11-09T22:45:48.944Z,75.91
2022-11-09T22:48:36.084Z,76.18
2022-11-09T22:51:21.465Z,76.64
2022-11-09T22:54:06.670Z,76.42
2022-11-09T22:56:51.709Z,76.94
2022-11-09T22:59:37.014Z,76.75
2022-11-09T23:02:21.979Z,76.47
2022-11-09T23:05:07.815Z,76.34
2022-11-09T23:07:54.878Z,76.15
2022-11-09T23:10:40.119Z,76.22
2022-11-09T23:13:25.450Z,76.89
2022-11-09T23:16:11.947Z,76.66
2022-11-09T23:18:57.426Z,77.34
2022-11-09T23:21:42.600Z,76.75
2022-11-09T23:24:46.425Z,76.95
2022-11-09T23:27:31.801Z,76.57
2022-11-09T23:30:18.058Z,76.85
2022-11-09T23:33:03.508Z,76.97
2022-11-09T23:35:48.695Z,76.55
2022-11-09T23:38:36.410Z,76.76
2022-11-09T23:41:21.832Z,76.64
2022-11-09T23:44:07.456Z,77.00
2022-11-09T23:46:52.495Z,77.07
2022-11-09T23:49:38.076Z,76.95
2022-11-09T23:52:23.053Z,76.43
2022-11-09T23:55:08.833Z,76.90
2022-11-09T23:57:54.911Z,76.64
